sensor_id;sensor_type;location;lat;lon;timestamp;pressure;altitude;pressure_sealevel;temperature;humidity
57232;BME280;43488;46.934;8.276;2023-07-22T00:01:19;96566.75;;;18.16;100.00
57232;BME280;43488;46.934;8.276;2023-07-22T00:03:47;96571.56;;;18.19;100.00
57232;BME280;43488;46.934;8.276;2023-07-22T00:06:14;96564.69;;;18.24;100.00
57232;BME280;43488;46.934;8.276;2023-07-22T00:08:42;96567.41;;;18.29;100.00
57232;BME280;43488;46.934;8.276;2023-07-22T00:11:09;96570.56;;;18.26;100.00
57232;BME280;43488;46.934;8.276;2023-07-22T00:13:40;96568.75;;;18.31;100.00
57232;BME280;43488;46.934;8.276;2023-07-22T00:16:07;96576.53;;;18.38;100.00
57232;BME280;43488;46.934;8.276;2023-07-22T00:18:35;96576.28;;;18.39;100.00
57232;BME280;43488;46.934;8.276;2023-07-22T00:21:02;96571.91;;;18.28;100.00
57232;BME280;43488;46.934;8.276;2023-07-22T00:23:30;96564.47;;;18.30;100.00
57232;BME280;43488;46.934;8.276;2023-07-22T00:25:57;96566.28;;;18.25;100.00
57232;BME280;43488;46.934;8.276;2023-07-22T00:28:24;96567.56;;;18.17;100.00
57232;BME280;43488;46.934;8.276;2023-07-22T00:30:51;96572.00;;;18.06;100.00
57232;BME280;43488;46.934;8.276;2023-07-22T00:33:20;96571.38;;;17.99;100.00
57232;BME280;43488;46.934;8.276;2023-07-22T00:35:48;96562.09;;;18.02;100.00
57232;BME280;43488;46.934;8.276;2023-07-22T00:38:18;96566.13;;;18.04;100.00
57232;BME280;43488;46.934;8.276;2023-07-22T00:40:46;96560.19;;;17.97;100.00
57232;BME280;43488;46.934;8.276;2023-07-22T00:43:13;96550.34;;;17.98;100.00
57232;BME280;43488;46.934;8.276;2023-07-22T00:45:40;96547.41;;;17.99;100.00
57232;BME280;43488;46.934;8.276;2023-07-22T00:48:08;96548.72;;;17.97;100.00
57232;BME280;43488;46.934;8.276;2023-07-22T00:50:36;96545.53;;;17.95;100.00
57232;BME280;43488;46.934;8.276;2023-07-22T00:53:05;96540.28;;;18.05;100.00
57232;BME280;43488;46.934;8.276;2023-07-22T00:55:35;96534.19;;;18.09;100.00
57232;BME280;43488;46.934;8.276;2023-07-22T00:58:04;96532.38;;;18.15;100.00
57232;BME280;43488;46.934;8.276;2023-07-22T01:00:31;96528.38;;;18.17;100.00
57232;BME280;43488;46.934;8.276;2023-07-22T01:02:59;96530.50;;;18.15;100.00
57232;BME280;43488;46.934;8.276;2023-07-22T01:05:34;96533.97;;;18.16;100.00
57232;BME280;43488;46.934;8.276;2023-07-22T01:08:02;96533.47;;;18.19;100.00
57232;BME280;43488;46.934;8.276;2023-07-22T01:10:31;96524.19;;;18.22;100.00
57232;BME280;43488;46.934;8.276;2023-07-22T01:12:58;96523.38;;;18.21;100.00
57232;BME280;43488;46.934;8.276;2023-07-22T01:15:26;96520.38;;;18.12;100.00
57232;BME280;43488;46.934;8.276;2023-07-22T01:17:54;96528.31;;;18.07;100.00
57232;BME280;43488;46.934;8.276;2023-07-22T01:20:24;96531.03;;;18.12;100.00
57232;BME280;43488;46.934;8.276;2023-07-22T01:22:52;96528.03;;;18.04;100.00
57232;BME280;43488;46.934;8.276;2023-07-22T01:25:21;96535.97;;;17.99;100.00
57232;BME280;43488;46.934;8.276;2023-07-22T01:27:50;96530.63;;;17.99;100.00
57232;BME280;43488;46.934;8.276;2023-07-22T01:30:18;96530.69;;;18.04;100.00
57232;BME280;43488;46.934;8.276;2023-07-22T01:32:49;96532.56;;;18.08;100.00
57232;BME280;43488;46.934;8.276;2023-07-22T01:35:17;96533.91;;;18.06;100.00
57232;BME280;43488;46.934;8.276;2023-07-22T01:37:45;96532.81;;;18.02;100.00
57232;BME280;43488;46.934;8.276;2023-07-22T01:40:13;96529.88;;;18.03;100.00
57232;BME280;43488;46.934;8.276;2023-07-22T01:42:42;96530.16;;;18.02;100.00
57232;BME280;43488;46.934;8.276;2023-07-22T01:45:10;96529.09;;;18.03;100.00
57232;BME280;43488;46.934;8.276;2023-07-22T01:47:39;96525.63;;;18.02;100.00
57232;BME280;43488;46.934;8.276;2023-07-22T01:50:08;96521.91;;;18.03;100.00
57232;BME280;43488;46.934;8.276;2023-07-22T01:52:36;96520.59;;;18.06;100.00
57232;BME280;43488;46.934;8.276;2023-07-22T01:55:04;96532.91;;;18.12;100.00
57232;BME280;43488;46.934;8.276;2023-07-22T01:57:33;96528.09;;;18.14;100.00
57232;BME280;43488;46.934;8.276;2023-07-22T02:00:00;96527.84;;;18.15;100.00
57232;BME280;43488;46.934;8.276;2023-07-22T02:02:30;96527.78;;;18.05;100.00
57232;BME280;43488;46.934;8.276;2023-07-22T02:04:57;96521.28;;;17.96;100.00
57232;BME280;43488;46.934;8.276;2023-07-22T02:07:24;96519.09;;;17.88;100.00
57232;BME280;43488;46.934;8.276;2023-07-22T02:09:53;96525.50;;;17.92;100.00
57232;BME280;43488;46.934;8.276;2023-07-22T02:12:21;96529.03;;;17.98;100.00
57232;BME280;43488;46.934;8.276;2023-07-22T02:14:48;96534.41;;;18.03;100.00
57232;BME280;43488;46.934;8.276;2023-07-22T02:17:18;96529.09;;;18.03;100.00
57232;BME280;43488;46.934;8.276;2023-07-22T02:19:46;96529.88;;;18.03;100.00
57232;BME280;43488;46.934;8.276;2023-07-22T02:22:13;96532.31;;;18.10;100.00
57232;BME280;43488;46.934;8.276;2023-07-22T02:24:41;96538.97;;;18.07;100.00
57232;BME280;43488;46.934;8.276;2023-07-22T02:27:08;96533.13;;;18.10;100.00
57232;BME280;43488;46.934;8.276;2023-07-22T02:29:36;96524.38;;;18.15;100.00
57232;BME280;43488;46.934;8.276;2023-07-22T02:32:04;96524.59;;;18.08;100.00
57232;BME280;43488;46.934;8.276;2023-07-22T02:34:32;96518.13;;;17.99;100.00
57232;BME280;43488;46.934;8.276;2023-07-22T02:36:59;96516.78;;;17.97;100.00
57232;BME280;43488;46.934;8.276;2023-07-22T02:39:26;96524.22;;;17.95;100.00
57232;BME280;43488;46.934;8.276;2023-07-22T02:41:54;96517.03;;;17.95;100.00
57232;BME280;43488;46.934;8.276;2023-07-22T02:44:21;96518.63;;;17.96;100.00
57232;BME280;43488;46.934;8.276;2023-07-22T02:46:48;96515.19;;;18.01;100.00
57232;BME280;43488;46.934;8.276;2023-07-22T02:49:15;96510.09;;;17.94;100.00
57232;BME280;43488;46.934;8.276;2023-07-22T02:51:43;96511.88;;;17.83;100.00
57232;BME280;43488;46.934;8.276;2023-07-22T02:54:11;96507.28;;;17.79;100.00
57232;BME280;43488;46.934;8.276;2023-07-22T02:56:38;96506.22;;;17.75;100.00
57232;BME280;43488;46.934;8.276;2023-07-22T02:59:06;96507.56;;;17.77;100.00
57232;BME280;43488;46.934;8.276;2023-07-22T03:01:35;96504.03;;;17.72;100.00
57232;BME280;43488;46.934;8.276;2023-07-22T03:04:04;96496.78;;;17.67;100.00
57232;BME280;43488;46.934;8.276;2023-07-22T03:06:31;96497.97;;;17.54;100.00
57232;BME280;43488;46.934;8.276;2023-07-22T03:08:59;96495.91;;;17.61;100.00
57232;BME280;43488;46.934;8.276;2023-07-22T03:11:26;96506.06;;;17.64;100.00
57232;BME280;43488;46.934;8.276;2023-07-22T03:13:54;96499.69;;;17.66;100.00
57232;BME280;43488;46.934;8.276;2023-07-22T03:16:21;96502.81;;;17.57;100.00
57232;BME280;43488;46.934;8.276;2023-07-22T03:18:50;96495.66;;;17.63;100.00
57232;BME280;43488;46.934;8.276;2023-07-22T03:21:17;96491.94;;;17.64;100.00
57232;BME280;43488;46.934;8.276;2023-07-22T03:23:45;96494.13;;;17.67;100.00
57232;BME280;43488;46.934;8.276;2023-07-22T03:26:12;96504.03;;;17.72;100.00
57232;BME280;43488;46.934;8.276;2023-07-22T03:28:40;96502.16;;;17.72;100.00
57232;BME280;43488;46.934;8.276;2023-07-22T03:31:09;96509.59;;;17.70;100.00
57232;BME280;43488;46.934;8.276;2023-07-22T03:33:37;96511.22;;;17.71;100.00
57232;BME280;43488;46.934;8.276;2023-07-22T03:36:04;96514.41;;;17.73;100.00
57232;BME280;43488;46.934;8.276;2023-07-22T03:38:31;96517.88;;;17.74;100.00
57232;BME280;43488;46.934;8.276;2023-07-22T03:41:00;96530.16;;;17.75;100.00
57232;BME280;43488;46.934;8.276;2023-07-22T03:43:28;96516.22;;;17.68;100.00
57232;BME280;43488;46.934;8.276;2023-07-22T03:45:55;96519.38;;;17.64;100.00
57232;BME280;43488;46.934;8.276;2023-07-22T03:48:22;96515.41;;;17.67;100.00
57232;BME280;43488;46.934;8.276;2023-07-22T03:50:49;96524.94;;;17.63;100.00
57232;BME280;43488;46.934;8.276;2023-07-22T03:53:17;96524.09;;;17.57;100.00
57232;BME280;43488;46.934;8.276;2023-07-22T03:55:44;96515.63;;;17.60;100.00
57232;BME280;43488;46.934;8.276;2023-07-22T03:58:12;96520.69;;;17.62;100.00
57232;BME280;43488;46.934;8.276;2023-07-22T04:00:39;96521.00;;;17.66;100.00
57232;BME280;43488;46.934;8.276;2023-07-22T04:03:06;96523.09;;;17.63;100.00
57232;BME280;43488;46.934;8.276;2023-07-22T04:05:33;96522.28;;;17.63;100.00
57232;BME280;43488;46.934;8.276;2023-07-22T04:08:01;96524.16;;;17.62;100.00
57232;BME280;43488;46.934;8.276;2023-07-22T04:10:28;96526.31;;;17.66;100.00
57232;BME280;43488;46.934;8.276;2023-07-22T04:12:56;96529.22;;;17.64;100.00
57232;BME280;43488;46.934;8.276;2023-07-22T04:15:24;96527.34;;;17.64;100.00
57232;BME280;43488;46.934;8.276;2023-07-22T04:17:52;96534.06;;;17.67;100.00
57232;BME280;43488;46.934;8.276;2023-07-22T04:20:19;96525.31;;;17.72;100.00
57232;BME280;43488;46.934;8.276;2023-07-22T04:22:47;96529.59;;;17.73;100.00
57232;BME280;43488;46.934;8.276;2023-07-22T04:25:14;96536.03;;;17.77;100.00
57232;BME280;43488;46.934;8.276;2023-07-22T04:27:42;96533.06;;;17.73;100.00
57232;BME280;43488;46.934;8.276;2023-07-22T04:30:10;96537.84;;;17.71;100.00
57232;BME280;43488;46.934;8.276;2023-07-22T04:32:38;96538.97;;;17.75;100.00
57232;BME280;43488;46.934;8.276;2023-07-22T04:35:06;96541.63;;;17.75;100.00
57232;BME280;43488;46.934;8.276;2023-07-22T04:37:33;96529.09;;;17.76;100.00
57232;BME280;43488;46.934;8.276;2023-07-22T04:40:03;96539.50;;;17.77;100.00
57232;BME280;43488;46.934;8.276;2023-07-22T04:42:33;96531.81;;;17.81;100.00
57232;BME280;43488;46.934;8.276;2023-07-22T04:45:01;96542.41;;;17.76;100.00
57232;BME280;43488;46.934;8.276;2023-07-22T04:47:28;96544.84;;;17.77;100.00
57232;BME280;43488;46.934;8.276;2023-07-22T04:49:55;96553.56;;;17.73;100.00
57232;BME280;43488;46.934;8.276;2023-07-22T04:52:22;96556.78;;;17.75;100.00
57232;BME280;43488;46.934;8.276;2023-07-22T04:54:50;96545.91;;;17.81;100.00
57232;BME280;43488;46.934;8.276;2023-07-22T04:57:18;96547.03;;;17.85;100.00
57232;BME280;43488;46.934;8.276;2023-07-22T04:59:45;96560.13;;;17.92;100.00
57232;BME280;43488;46.934;8.276;2023-07-22T05:02:13;96554.25;;;17.90;100.00
57232;BME280;43488;46.934;8.276;2023-07-22T05:04:40;96553.72;;;17.88;100.00
57232;BME280;43488;46.934;8.276;2023-07-22T05:07:08;96560.13;;;17.92;100.00
57232;BME280;43488;46.934;8.276;2023-07-22T05:09:36;96559.09;;;17.93;100.00
57232;BME280;43488;46.934;8.276;2023-07-22T05:12:04;96559.38;;;17.97;100.00
57232;BME280;43488;46.934;8.276;2023-07-22T05:14:31;96566.88;;;18.00;100.00
57232;BME280;43488;46.934;8.276;2023-07-22T05:16:58;96560.25;;;18.02;100.00
57232;BME280;43488;46.934;8.276;2023-07-22T05:19:25;96563.66;;;17.98;100.00
57232;BME280;43488;46.934;8.276;2023-07-22T05:21:53;96571.63;;;17.93;100.00
57232;BME280;43488;46.934;8.276;2023-07-22T05:24:20;96575.00;;;17.88;100.00
57232;BME280;43488;46.934;8.276;2023-07-22T05:26:48;96572.41;;;17.93;100.00
57232;BME280;43488;46.934;8.276;2023-07-22T05:29:16;96575.88;;;17.94;100.00
57232;BME280;43488;46.934;8.276;2023-07-22T05:31:46;96571.91;;;17.96;100.00
57232;BME280;43488;46.934;8.276;2023-07-22T05:34:13;96569.84;;;18.03;100.00
57232;BME280;43488;46.934;8.276;2023-07-22T05:36:40;96569.06;;;18.08;100.00
57232;BME280;43488;46.934;8.276;2023-07-22T05:39:08;96566.94;;;18.10;100.00
57232;BME280;43488;46.934;8.276;2023-07-22T05:41:35;96563.03;;;18.17;100.00
57232;BME280;43488;46.934;8.276;2023-07-22T05:44:03;96572.63;;;18.18;100.00
57232;BME280;43488;46.934;8.276;2023-07-22T05:46:30;96576.41;;;18.23;100.00
57232;BME280;43488;46.934;8.276;2023-07-22T05:48:58;96578.56;;;18.26;100.00
57232;BME280;43488;46.934;8.276;2023-07-22T05:51:26;96582.34;;;18.35;100.00
57232;BME280;43488;46.934;8.276;2023-07-22T05:53:54;96579.75;;;18.45;100.00
57232;BME280;43488;46.934;8.276;2023-07-22T05:56:21;96576.88;;;18.52;100.00
57232;BME280;43488;46.934;8.276;2023-07-22T05:58:48;96577.41;;;18.48;100.00
57232;BME280;43488;46.934;8.276;2023-07-22T06:01:16;96582.75;;;18.48;100.00
57232;BME280;43488;46.934;8.276;2023-07-22T06:03:43;96577.22;;;18.60;100.00
57232;BME280;43488;46.934;8.276;2023-07-22T06:06:10;96587.72;;;18.72;100.00
57232;BME280;43488;46.934;8.276;2023-07-22T06:08:37;96579.25;;;18.80;100.00
57232;BME280;43488;46.934;8.276;2023-07-22T06:11:05;96584.56;;;18.80;100.00
57232;BME280;43488;46.934;8.276;2023-07-22T06:13:33;96582.97;;;18.79;100.00
57232;BME280;43488;46.934;8.276;2023-07-22T06:16:00;96581.16;;;18.85;100.00
57232;BME280;43488;46.934;8.276;2023-07-22T06:18:27;96586.53;;;18.95;100.00
57232;BME280;43488;46.934;8.276;2023-07-22T06:20:54;96592.69;;;18.95;100.00
57232;BME280;43488;46.934;8.276;2023-07-22T06:23:22;96589.75;;;18.97;100.00
57232;BME280;43488;46.934;8.276;2023-07-22T06:25:51;96590.28;;;18.99;100.00
57232;BME280;43488;46.934;8.276;2023-07-22T06:28:19;96594.28;;;19.01;100.00
57232;BME280;43488;46.934;8.276;2023-07-22T06:30:46;96603.13;;;19.02;100.00
57232;BME280;43488;46.934;8.276;2023-07-22T06:33:13;96596.47;;;19.04;100.00
57232;BME280;43488;46.934;8.276;2023-07-22T06:35:40;96598.91;;;19.11;100.00
57232;BME280;43488;46.934;8.276;2023-07-22T06:38:08;96601.09;;;19.24;100.00
57232;BME280;43488;46.934;8.276;2023-07-22T06:40:35;96604.84;;;19.23;100.00
57232;BME280;43488;46.934;8.276;2023-07-22T06:43:03;96605.88;;;19.17;100.00
57232;BME280;43488;46.934;8.276;2023-07-22T06:45:32;96609.00;;;19.09;100.00
57232;BME280;43488;46.934;8.276;2023-07-22T06:47:59;96602.28;;;19.01;100.00
57232;BME280;43488;46.934;8.276;2023-07-22T06:50:27;96607.63;;;19.01;100.00
57232;BME280;43488;46.934;8.276;2023-07-22T06:52:55;96611.38;;;19.00;100.00
57232;BME280;43488;46.934;8.276;2023-07-22T06:55:22;96609.53;;;19.06;100.00
57232;BME280;43488;46.934;8.276;2023-07-22T06:57:50;96607.94;;;19.05;100.00
57232;BME280;43488;46.934;8.276;2023-07-22T07:00:17;96611.19;;;19.17;100.00
57232;BME280;43488;46.934;8.276;2023-07-22T07:02:45;96608.31;;;19.29;100.00
57232;BME280;43488;46.934;8.276;2023-07-22T07:05:12;96612.66;;;19.40;100.00
57232;BME280;43488;46.934;8.276;2023-07-22T07:07:40;96614.53;;;19.40;100.00
57232;BME280;43488;46.934;8.276;2023-07-22T07:10:08;96606.47;;;19.35;100.00
57232;BME280;43488;46.934;8.276;2023-07-22T07:12:35;96611.28;;;19.38;100.00
57232;BME280;43488;46.934;8.276;2023-07-22T07:15:03;96613.94;;;19.32;100.00
57232;BME280;43488;46.934;8.276;2023-07-22T07:17:31;96617.69;;;19.37;100.00
57232;BME280;43488;46.934;8.276;2023-07-22T07:19:59;96612.91;;;19.39;100.00
57232;BME280;43488;46.934;8.276;2023-07-22T07:22:26;96612.94;;;19.44;100.00
57232;BME280;43488;46.934;8.276;2023-07-22T07:24:53;96620.25;;;19.58;100.00
57232;BME280;43488;46.934;8.276;2023-07-22T07:27:21;96620.53;;;19.67;99.69
57232;BME280;43488;46.934;8.276;2023-07-22T07:29:48;96624.31;;;19.76;98.48
57232;BME280;43488;46.934;8.276;2023-07-22T07:32:15;96633.91;;;19.77;96.82
57232;BME280;43488;46.934;8.276;2023-07-22T07:34:42;96623.22;;;19.72;96.02
57232;BME280;43488;46.934;8.276;2023-07-22T07:37:09;96628.53;;;19.72;96.73
57232;BME280;43488;46.934;8.276;2023-07-22T07:39:37;96637.41;;;19.83;97.36
57232;BME280;43488;46.934;8.276;2023-07-22T07:42:05;96634.47;;;19.89;98.37
57232;BME280;43488;46.934;8.276;2023-07-22T07:44:33;96631.84;;;19.95;98.40
57232;BME280;43488;46.934;8.276;2023-07-22T07:47:00;96626.72;;;19.93;99.31
57232;BME280;43488;46.934;8.276;2023-07-22T07:49:27;96636.63;;;19.93;100.00
57232;BME280;43488;46.934;8.276;2023-07-22T07:51:54;96640.38;;;19.97;100.00
57232;BME280;43488;46.934;8.276;2023-07-22T07:54:22;96645.19;;;20.00;100.00
57232;BME280;43488;46.934;8.276;2023-07-22T07:56:49;96638.22;;;19.88;100.00
57232;BME280;43488;46.934;8.276;2023-07-22T07:59:16;96646.00;;;19.95;99.87
57232;BME280;43488;46.934;8.276;2023-07-22T08:01:43;96639.56;;;20.01;99.69
57232;BME280;43488;46.934;8.276;2023-07-22T08:04:11;96633.44;;;20.01;100.00
57232;BME280;43488;46.934;8.276;2023-07-22T08:06:38;96634.78;;;20.03;99.51
57232;BME280;43488;46.934;8.276;2023-07-22T08:09:05;96635.03;;;19.97;99.30
57232;BME280;43488;46.934;8.276;2023-07-22T08:11:35;96642.00;;;20.03;99.92
57232;BME280;43488;46.934;8.276;2023-07-22T08:14:02;96639.06;;;20.04;99.08
57232;BME280;43488;46.934;8.276;2023-07-22T08:16:29;96638.78;;;20.11;99.14
57232;BME280;43488;46.934;8.276;2023-07-22T08:18:56;96632.66;;;20.10;100.00
57232;BME280;43488;46.934;8.276;2023-07-22T08:21:24;96635.31;;;20.10;99.28
57232;BME280;43488;46.934;8.276;2023-07-22T08:23:51;96632.13;;;20.18;96.38
57232;BME280;43488;46.934;8.276;2023-07-22T08:26:18;96637.25;;;20.30;98.01
57232;BME280;43488;46.934;8.276;2023-07-22T08:28:48;96644.19;;;20.36;97.18
57232;BME280;43488;46.934;8.276;2023-07-22T08:31:15;96644.72;;;20.38;96.09
57232;BME280;43488;46.934;8.276;2023-07-22T08:33:43;96643.97;;;20.43;96.35
57232;BME280;43488;46.934;8.276;2023-07-22T08:36:10;96642.34;;;20.47;93.72
57232;BME280;43488;46.934;8.276;2023-07-22T08:38:37;96640.47;;;20.42;90.86
57232;BME280;43488;46.934;8.276;2023-07-22T08:41:05;96650.94;;;20.49;92.93
57232;BME280;43488;46.934;8.276;2023-07-22T08:43:35;96647.16;;;20.55;92.89
57232;BME280;43488;46.934;8.276;2023-07-22T08:46:06;96651.19;;;20.58;92.95
57232;BME280;43488;46.934;8.276;2023-07-22T08:48:34;96646.91;;;20.62;92.81
57232;BME280;43488;46.934;8.276;2023-07-22T08:51:22;96644.25;;;20.67;90.99
57232;BME280;43488;46.934;8.276;2023-07-22T08:53:51;96641.00;;;20.75;90.13
57232;BME280;43488;46.934;8.276;2023-07-22T08:56:20;96641.81;;;20.86;88.35
57232;BME280;43488;46.934;8.276;2023-07-22T08:58:48;96648.47;;;20.93;87.40
57232;BME280;43488;46.934;8.276;2023-07-22T09:01:16;96639.13;;;20.91;85.17
57232;BME280;43488;46.934;8.276;2023-07-22T09:03:44;96645.81;;;21.04;90.36
57232;BME280;43488;46.934;8.276;2023-07-22T09:06:15;96649.56;;;21.08;89.19
57232;BME280;43488;46.934;8.276;2023-07-22T09:08:42;96644.44;;;21.21;85.68
57232;BME280;43488;46.934;8.276;2023-07-22T09:11:10;96648.22;;;21.31;86.56
57232;BME280;43488;46.934;8.276;2023-07-22T09:13:40;96642.81;;;21.41;85.69
57232;BME280;43488;46.934;8.276;2023-07-22T09:16:10;96633.41;;;21.48;84.75
57232;BME280;43488;46.934;8.276;2023-07-22T09:18:39;96640.03;;;21.66;84.18
57232;BME280;43488;46.934;8.276;2023-07-22T09:21:06;96627.41;;;21.72;82.46
57232;BME280;43488;46.934;8.276;2023-07-22T09:23:38;96636.41;;;21.96;80.65
57232;BME280;43488;46.934;8.276;2023-07-22T09:26:10;96640.41;;;22.04;81.47
57232;BME280;43488;46.934;8.276;2023-07-22T09:28:58;96640.13;;;22.05;76.94
57232;BME280;43488;46.934;8.276;2023-07-22T09:31:26;96637.72;;;22.04;77.06
57232;BME280;43488;46.934;8.276;2023-07-22T09:34:09;96642.31;;;21.93;74.79
57232;BME280;43488;46.934;8.276;2023-07-22T09:36:57;96633.97;;;22.00;72.71
57232;BME280;43488;46.934;8.276;2023-07-22T09:39:25;96630.19;;;22.11;74.18
57232;BME280;43488;46.934;8.276;2023-07-22T09:41:59;96636.13;;;21.98;72.01
57232;BME280;43488;46.934;8.276;2023-07-22T09:44:30;96631.69;;;21.73;70.30
57232;BME280;43488;46.934;8.276;2023-07-22T09:47:06;96627.97;;;22.23;71.01
57232;BME280;43488;46.934;8.276;2023-07-22T09:49:40;96628.25;;;22.56;70.72
57232;BME280;43488;46.934;8.276;2023-07-22T09:52:10;96619.91;;;22.62;65.47
57232;BME280;43488;46.934;8.276;2023-07-22T09:54:48;96613.34;;;22.74;65.59
57232;BME280;43488;46.934;8.276;2023-07-22T09:57:16;96618.44;;;22.75;67.61
57232;BME280;43488;46.934;8.276;2023-07-22T09:59:49;96614.78;;;22.95;68.19
57232;BME280;43488;46.934;8.276;2023-07-22T10:02:20;96612.03;;;23.05;63.00
57232;BME280;43488;46.934;8.276;2023-07-22T10:04:52;96607.97;;;23.08;61.49
57232;BME280;43488;46.934;8.276;2023-07-22T10:07:19;96610.34;;;22.80;62.83
57232;BME280;43488;46.934;8.276;2023-07-22T10:09:49;96609.97;;;22.97;62.47
57232;BME280;43488;46.934;8.276;2023-07-22T10:12:16;96610.22;;;23.24;61.74
57232;BME280;43488;46.934;8.276;2023-07-22T10:14:45;96604.75;;;23.53;61.04
57232;BME280;43488;46.934;8.276;2023-07-22T10:17:13;96605.72;;;23.39;61.83
57232;BME280;43488;46.934;8.276;2023-07-22T10:19:41;96603.28;;;23.42;58.41
57232;BME280;43488;46.934;8.276;2023-07-22T10:22:08;96599.59;;;23.62;62.96
57232;BME280;43488;46.934;8.276;2023-07-22T10:24:39;96595.66;;;23.73;61.71
57232;BME280;43488;46.934;8.276;2023-07-22T10:27:08;96596.66;;;23.35;60.34
57232;BME280;43488;46.934;8.276;2023-07-22T10:29:36;96592.31;;;23.63;66.03
57232;BME280;43488;46.934;8.276;2023-07-22T10:32:05;96589.13;;;23.61;63.11
57232;BME280;43488;46.934;8.276;2023-07-22T10:34:33;96584.91;;;23.73;63.12
57232;BME280;43488;46.934;8.276;2023-07-22T10:37:00;96585.06;;;23.82;63.23
57232;BME280;43488;46.934;8.276;2023-07-22T10:39:28;96579.38;;;23.41;59.20
57232;BME280;43488;46.934;8.276;2023-07-22T10:42:04;96580.63;;;23.48;60.26
57232;BME280;43488;46.934;8.276;2023-07-22T10:44:37;96575.78;;;23.50;65.02
57232;BME280;43488;46.934;8.276;2023-07-22T10:47:07;96575.78;;;23.50;62.85
57232;BME280;43488;46.934;8.276;2023-07-22T10:49:46;96572.56;;;23.72;63.18
57232;BME280;43488;46.934;8.276;2023-07-22T10:52:14;96561.97;;;23.62;62.86
57232;BME280;43488;46.934;8.276;2023-07-22T10:54:42;96560.06;;;23.63;63.28
57232;BME280;43488;46.934;8.276;2023-07-22T10:59:52;96555.00;;;23.99;61.47
57232;BME280;43488;46.934;8.276;2023-07-22T11:02:28;96552.66;;;24.11;58.71
57232;BME280;43488;46.934;8.276;2023-07-22T11:04:59;96551.69;;;24.21;59.68
57232;BME280;43488;46.934;8.276;2023-07-22T11:07:42;96544.00;;;24.33;57.91
57232;BME280;43488;46.934;8.276;2023-07-22T11:10:19;96540.16;;;24.01;56.79
57232;BME280;43488;46.934;8.276;2023-07-22T11:12:48;96540.91;;;24.07;60.83
57232;BME280;43488;46.934;8.276;2023-07-22T11:15:16;96539.94;;;24.35;59.81
57232;BME280;43488;46.934;8.276;2023-07-22T11:17:45;96536.88;;;24.56;59.03
57232;BME280;43488;46.934;8.276;2023-07-22T11:20:13;96539.84;;;24.40;57.42
57232;BME280;43488;46.934;8.276;2023-07-22T11:22:41;96542.63;;;24.35;60.55
57232;BME280;43488;46.934;8.276;2023-07-22T11:25:09;96532.06;;;24.39;56.82
57232;BME280;43488;46.934;8.276;2023-07-22T11:27:38;96535.47;;;24.45;57.53
57232;BME280;43488;46.934;8.276;2023-07-22T11:30:06;96534.69;;;24.25;56.68
57232;BME280;43488;46.934;8.276;2023-07-22T11:32:34;96538.25;;;24.21;56.59
57232;BME280;43488;46.934;8.276;2023-07-22T11:35:02;96532.56;;;24.22;57.03
57232;BME280;43488;46.934;8.276;2023-07-22T11:37:31;96534.19;;;24.42;56.82
57232;BME280;43488;46.934;8.276;2023-07-22T11:40:01;96526.59;;;24.44;55.45
57232;BME280;43488;46.934;8.276;2023-07-22T11:42:34;96528.91;;;24.51;53.17
57232;BME280;43488;46.934;8.276;2023-07-22T11:45:03;96526.63;;;24.58;54.23
57232;BME280;43488;46.934;8.276;2023-07-22T11:47:31;96525.19;;;24.79;54.13
57232;BME280;43488;46.934;8.276;2023-07-22T11:49:58;96516.78;;;24.94;55.47
57232;BME280;43488;46.934;8.276;2023-07-22T11:52:26;96512.00;;;24.91;54.23
57232;BME280;43488;46.934;8.276;2023-07-22T11:54:53;96517.19;;;24.74;52.27
57232;BME280;43488;46.934;8.276;2023-07-22T11:57:22;96521.59;;;24.98;52.46
57232;BME280;43488;46.934;8.276;2023-07-22T11:59:53;96512.75;;;25.11;52.64
57232;BME280;43488;46.934;8.276;2023-07-22T12:02:23;96513.31;;;24.94;52.91
57232;BME280;43488;46.934;8.276;2023-07-22T12:04:53;96504.56;;;25.02;53.36
57232;BME280;43488;46.934;8.276;2023-07-22T12:07:26;96495.88;;;25.19;51.22
57232;BME280;43488;46.934;8.276;2023-07-22T12:09:57;96496.94;;;25.32;49.55
57232;BME280;43488;46.934;8.276;2023-07-22T12:12:38;96509.94;;;25.30;51.01
57232;BME280;43488;46.934;8.276;2023-07-22T12:15:14;96513.03;;;25.37;53.76
57232;BME280;43488;46.934;8.276;2023-07-22T12:17:59;96509.78;;;25.62;51.89
57232;BME280;43488;46.934;8.276;2023-07-22T12:20:30;96499.41;;;25.56;51.85
57232;BME280;43488;46.934;8.276;2023-07-22T12:22:59;96494.59;;;25.66;51.09
57232;BME280;43488;46.934;8.276;2023-07-22T12:25:26;96487.59;;;25.79;51.87
57232;BME280;43488;46.934;8.276;2023-07-22T12:27:54;96494.22;;;25.73;49.60
57232;BME280;43488;46.934;8.276;2023-07-22T12:30:22;96487.84;;;25.91;49.17
57232;BME280;43488;46.934;8.276;2023-07-22T12:32:51;96491.72;;;25.63;50.45
57232;BME280;43488;46.934;8.276;2023-07-22T12:35:18;96483.41;;;25.59;50.00
57232;BME280;43488;46.934;8.276;2023-07-22T12:37:46;96497.81;;;25.55;48.34
57232;BME280;43488;46.934;8.276;2023-07-22T12:40:14;96496.16;;;25.45;48.49
57232;BME280;43488;46.934;8.276;2023-07-22T12:42:44;96483.91;;;25.25;51.01
57232;BME280;43488;46.934;8.276;2023-07-22T12:45:12;96483.47;;;25.32;51.23
57232;BME280;43488;46.934;8.276;2023-07-22T12:47:40;96484.84;;;25.70;49.91
57232;BME280;43488;46.934;8.276;2023-07-22T12:50:08;96476.06;;;25.87;51.47
57232;BME280;43488;46.934;8.276;2023-07-22T12:52:36;96474.84;;;25.71;51.72
57232;BME280;43488;46.934;8.276;2023-07-22T12:55:04;96480.50;;;25.19;49.37
57232;BME280;43488;46.934;8.276;2023-07-22T12:57:32;96480.81;;;25.18;49.61
57232;BME280;43488;46.934;8.276;2023-07-22T13:00:00;96477.84;;;25.06;50.57
57232;BME280;43488;46.934;8.276;2023-07-22T13:02:27;96484.03;;;25.06;52.61
57232;BME280;43488;46.934;8.276;2023-07-22T13:04:55;96474.19;;;25.51;52.60